Blue Star — LK8657 — position and weather

sailwx.info

Track history (hours):
 
Tides and Currents Weather Stations Pressure Air Temp Water Temp Dewpoint Dewpoint Depression Visibility Wind Speed Wind Dir Waves Ship Positions

Blue Star

Last reported at 2016-Jul-31 15:12 UTC. Time now 2016-Sep-27 22:25 UTC.
Position N 69°39' E 018°60'.
Warning: this ship's position is 58 days out of date.

Length 11 m.

Type: Pleasure craft. MMSI: 258105360.

Date/timePositionNaut miles runAvg speedWind from/ knotsBaromVisibWave heightAir tempDewpointWater temp
2016-Jul-31 15:12N 69°39' E 018°60'0 0.0
2016-Jul-31 14:33N 69°39' E 018°60'0 0.0
2016-Jul-31 13:33N 69°39' E 018°60'0 0.0
2016-Jul-31 12:33N 69°39' E 018°60'0 0.0
2016-Jul-31 11:33N 69°39' E 018°60'0 0.0
2016-Jul-31 10:33N 69°39' E 018°60'  
2016-Jul-25 11:17N 69°17' E 017°58'2 3.0
2016-Jul-25 10:27N 69°14' E 017°59'0 0.0
2016-Jul-25 09:12N 69°14' E 017°59'0 0.0
2016-Jul-25 08:33N 69°14' E 017°59'0 0.0
2016-Jul-25 07:12N 69°14' E 017°59'0 0.0
2016-Jul-25 06:27N 69°14' E 017°59'0 0.0
2016-Jul-25 05:24N 69°14' E 017°59'0 0.0
2016-Jul-25 04:27N 69°14' E 017°59'0 0.0
2016-Jul-25 03:30N 69°14' E 017°59'0 0.0
2016-Jul-25 02:27N 69°14' E 017°59'0 0.0
2016-Jul-25 01:33N 69°14' E 017°59'0 0.0
2016-Jul-25 00:19N 69°14' E 017°59'0 0.0
2016-Jul-24 23:31N 69°14' E 017°59'0 0.0
2016-Jul-24 22:28N 69°14' E 017°59'0 0.0
2016-Jul-24 21:31N 69°14' E 017°59'0 0.0
2016-Jul-24 20:16N 69°14' E 017°59'0 0.0
2016-Jul-24 19:29N 69°14' E 017°59'4 4.3
2016-Jul-24 18:29N 69°10' E 017°57'9 8.1
2016-Jul-24 17:23N 69°05' E 017°36'  
Track history (hours):
 
Tides and Currents Weather Stations Pressure Air Temp Water Temp Dewpoint Dewpoint Depression Visibility Wind Speed Wind Dir Waves Ship Positions

Blue Star

Last reported at 2016-Jul-31 15:12 UTC. Time now 2016-Sep-27 22:25 UTC.
Position N 69°39' E 018°60'.
Warning: this ship's position is 58 days out of date.

Length 11 m.

Type: Pleasure craft. MMSI: 258105360.

Date/timePositionNaut miles runAvg speedWind from/ knotsBaromVisibWave heightAir tempDewpointWater temp
2016-Jul-31 15:12N 69°39' E 018°60'0 0.0
2016-Jul-31 14:33N 69°39' E 018°60'0 0.0
2016-Jul-31 13:33N 69°39' E 018°60'0 0.0
2016-Jul-31 12:33N 69°39' E 018°60'0 0.0
2016-Jul-31 11:33N 69°39' E 018°60'0 0.0
2016-Jul-31 10:33N 69°39' E 018°60'  
2016-Jul-25 11:17N 69°17' E 017°58'2 3.0
2016-Jul-25 10:27N 69°14' E 017°59'0 0.0
2016-Jul-25 09:12N 69°14' E 017°59'0 0.0
2016-Jul-25 08:33N 69°14' E 017°59'0 0.0
2016-Jul-25 07:12N 69°14' E 017°59'0 0.0
2016-Jul-25 06:27N 69°14' E 017°59'0 0.0
2016-Jul-25 05:24N 69°14' E 017°59'0 0.0
2016-Jul-25 04:27N 69°14' E 017°59'0 0.0
2016-Jul-25 03:30N 69°14' E 017°59'0 0.0
2016-Jul-25 02:27N 69°14' E 017°59'0 0.0
2016-Jul-25 01:33N 69°14' E 017°59'0 0.0
2016-Jul-25 00:19N 69°14' E 017°59'0 0.0
2016-Jul-24 23:31N 69°14' E 017°59'0 0.0
2016-Jul-24 22:28N 69°14' E 017°59'0 0.0
2016-Jul-24 21:31N 69°14' E 017°59'0 0.0
2016-Jul-24 20:16N 69°14' E 017°59'0 0.0
2016-Jul-24 19:29N 69°14' E 017°59'4 4.3
2016-Jul-24 18:29N 69°10' E 017°57'9 8.1
2016-Jul-24 17:23N 69°05' E 017°36'  

Dump ship's entire track history